createdAt,value
2022-08-31T00:00:45.497Z,17.70
2022-08-31T00:11:16.159Z,17.64
2022-08-31T00:21:46.922Z,17.55
2022-08-31T00:32:16.203Z,17.40
2022-08-31T00:42:50.525Z,17.39
2022-08-31T00:53:20.050Z,17.34
2022-08-31T01:03:49.902Z,17.28
2022-08-31T01:14:19.012Z,17.15
2022-08-31T01:24:49.953Z,17.10
2022-08-31T01:35:19.258Z,17.17
2022-08-31T01:45:48.415Z,17.18
2022-08-31T01:56:20.602Z,17.12
2022-08-31T02:06:53.959Z,17.04
2022-08-31T02:17:22.995Z,17.04
2022-08-31T02:27:51.945Z,17.02
2022-08-31T02:38:23.868Z,16.84
2022-08-31T02:48:53.158Z,16.73
2022-08-31T02:59:22.353Z,16.68
2022-08-31T03:09:51.522Z,16.54
2022-08-31T03:20:23.196Z,16.27
2022-08-31T03:30:53.236Z,16.16
2022-08-31T03:41:26.497Z,16.17
2022-08-31T03:51:55.874Z,16.36
2022-08-31T04:02:25.619Z,16.48
2022-08-31T04:12:54.937Z,16.44
2022-08-31T04:23:29.689Z,16.42
2022-08-31T04:34:00.663Z,16.42
2022-08-31T04:44:29.725Z,16.42
2022-08-31T04:54:59.144Z,16.42
2022-08-31T05:05:28.468Z,16.48
2022-08-31T05:15:58.695Z,16.67
2022-08-31T05:26:30.398Z,16.85
2022-08-31T05:36:59.962Z,17.04
2022-08-31T05:47:29.093Z,17.25
2022-08-31T05:57:58.281Z,17.31
2022-08-31T06:08:27.673Z,17.29
2022-08-31T06:18:58.735Z,17.43
2022-08-31T06:29:28.440Z,17.67
2022-08-31T06:39:57.678Z,17.79
2022-08-31T06:50:26.628Z,18.06
2022-08-31T07:00:59.027Z,18.36
2022-08-31T07:11:33.035Z,18.84
2022-08-31T07:22:03.360Z,19.31
2022-08-31T07:32:32.503Z,19.53
2022-08-31T07:43:04.904Z,19.43
2022-08-31T07:53:47.922Z,19.29
2022-08-31T08:04:25.682Z,19.35
2022-08-31T08:15:00.911Z,19.82
2022-08-31T08:25:30.002Z,20.15
2022-08-31T08:36:03.498Z,20.44
2022-08-31T08:46:40.601Z,20.51
2022-08-31T08:57:14.656Z,20.51
2022-08-31T09:08:10.749Z,20.26
2022-08-31T09:18:49.968Z,20.12
2022-08-31T09:29:27.025Z,20.11
2022-08-31T09:39:57.390Z,20.08
2022-08-31T09:50:34.012Z,20.16
2022-08-31T10:01:14.616Z,20.17
2022-08-31T10:11:47.878Z,20.18
2022-08-31T10:22:26.047Z,20.30
2022-08-31T10:33:05.381Z,20.21
2022-08-31T10:43:39.341Z,20.22
2022-08-31T10:54:29.164Z,20.14
2022-08-31T11:05:10.972Z,20.06
2022-08-31T11:16:16.812Z,20.06
2022-08-31T11:26:59.099Z,20.10
2022-08-31T11:37:58.273Z,20.01
2022-08-31T11:49:06.098Z,19.98
2022-08-31T11:59:38.329Z,20.00
2022-08-31T12:10:35.544Z,20.08
2022-08-31T12:21:32.123Z,20.05
2022-08-31T12:32:19.571Z,20.12
2022-08-31T12:42:58.527Z,20.18
2022-08-31T12:54:02.839Z,20.40
2022-08-31T13:04:32.007Z,20.62
2022-08-31T13:15:02.061Z,20.64
2022-08-31T13:25:39.513Z,20.70
2022-08-31T13:36:32.380Z,20.89
2022-08-31T13:47:05.815Z,20.82
2022-08-31T13:57:36.277Z,20.77
2022-08-31T14:08:09.778Z,20.74
2022-08-31T14:18:43.565Z,20.56
2022-08-31T14:29:15.678Z,20.43
2022-08-31T14:39:47.659Z,20.36
2022-08-31T14:50:22.438Z,20.26
2022-08-31T15:00:53.932Z,20.22
2022-08-31T15:11:23.372Z,20.23
2022-08-31T15:22:02.771Z,20.25
2022-08-31T15:32:32.313Z,20.21
2022-08-31T15:43:02.771Z,20.17
2022-08-31T15:53:32.502Z,20.10
2022-08-31T16:04:02.876Z,20.02
2022-08-31T16:14:33.648Z,19.92
2022-08-31T16:25:02.848Z,19.80
2022-08-31T16:35:32.169Z,19.61
2022-08-31T16:46:18.896Z,19.56
2022-08-31T16:56:53.577Z,19.56
2022-08-31T17:07:23.744Z,19.52
2022-08-31T17:17:52.877Z,19.40
2022-08-31T17:28:25.944Z,19.22
2022-08-31T17:38:55.527Z,19.13
2022-08-31T17:49:26.363Z,18.99
2022-08-31T17:59:56.338Z,18.96
2022-08-31T18:10:26.659Z,18.87
2022-08-31T18:20:55.703Z,18.89
2022-08-31T18:31:30.959Z,18.79
2022-08-31T18:42:17.247Z,18.74
2022-08-31T18:52:48.393Z,18.69
2022-08-31T19:03:18.156Z,18.60
2022-08-31T19:13:51.243Z,18.41
2022-08-31T19:24:22.225Z,18.50
2022-08-31T19:34:51.543Z,18.48
2022-08-31T19:45:23.031Z,18.43
2022-08-31T19:55:56.718Z,18.37
2022-08-31T20:06:27.530Z,18.20
2022-08-31T20:16:59.825Z,18.14
2022-08-31T20:27:29.735Z,18.04
2022-08-31T20:37:59.203Z,17.91
2022-08-31T20:48:45.399Z,17.81
2022-08-31T20:59:14.682Z,17.70
2022-08-31T21:09:44.911Z,17.62
2022-08-31T21:20:15.704Z,17.65
2022-08-31T21:30:47.368Z,17.68
2022-08-31T21:41:16.597Z,17.68
2022-08-31T21:51:50.115Z,17.51
2022-08-31T22:02:19.216Z,17.47
2022-08-31T22:12:48.274Z,17.35
2022-08-31T22:23:17.319Z,17.34
2022-08-31T22:33:49.691Z,17.36
2022-08-31T22:44:21.748Z,17.25
2022-08-31T22:54:50.855Z,17.15
2022-08-31T23:05:21.354Z,17.02
2022-08-31T23:15:50.488Z,17.13
2022-08-31T23:26:21.366Z,17.32
2022-08-31T23:36:53.621Z,17.42
2022-08-31T23:47:26.090Z,17.34
2022-08-31T23:57:56.171Z,17.24
